Point Fermin — WDE4178 — position and weather

sailwx.info

Track history (hours):
 
Tides and Currents Weather Stations Pressure Air Temp Water Temp Dewpoint Dewpoint Depression Visibility Wind Speed Wind Dir Waves Ship Positions

Point Fermin

Owner: Foss Maritime Company, Seattle, WA. More information available from US FCC via Universal Licensing System and Coast Guard Vessel Documentation Center.

Last reported at 2017-Oct-16 04:19 UTC. Time now 2017-Oct-18 00:10 UTC.
Position N 37°54' W 122°22'.

Length 32 m; draft 4.3 m.

Type: Towing. MMSI: 367349770.

Date/timePositionNaut miles runAvg speedWind from/ knotsBaromVisibWave heightAir tempDewpointWater temp
2017-Oct-16 04:19N 37°54' W 122°22'2 4.9
2017-Oct-16 04:00N 37°54' W 122°24'510.2
2017-Oct-16 03:30N 37°49' W 122°23'4 8.7
2017-Oct-16 03:01N 37°45' W 122°21'2 3.0
2017-Oct-16 02:31N 37°44' W 122°20'611.4
2017-Oct-16 02:00N 37°49' W 122°23'5 9.7
2017-Oct-16 01:30N 37°54' W 122°24'2 3.0
2017-Oct-16 01:00N 37°54' W 122°22'0 0.0
2017-Oct-16 00:30N 37°54' W 122°22'1 1.5
2017-Oct-16 00:00N 37°55' W 122°22'1 1.6
2017-Oct-15 23:30N 37°54' W 122°22'0 0.3
2017-Oct-15 23:00N 37°54' W 122°22'1 1.3
2017-Oct-15 22:30N 37°55' W 122°22'0 0.3
2017-Oct-15 22:00N 37°55' W 122°22'1 1.0
2017-Oct-15 21:30N 37°54' W 122°22'0 0.0
2017-Oct-15 21:00N 37°54' W 122°22'0 0.0
2017-Oct-15 20:30N 37°54' W 122°22'0 0.0
2017-Oct-15 20:00N 37°54' W 122°22'0 0.0
2017-Oct-15 19:30N 37°54' W 122°22'0 0.0
2017-Oct-15 19:00N 37°54' W 122°22'0 0.0
2017-Oct-15 18:30N 37°54' W 122°22'0 0.0
2017-Oct-15 18:00N 37°54' W 122°22'0 0.0
2017-Oct-15 17:30N 37°54' W 122°22'0 0.0
2017-Oct-15 17:00N 37°54' W 122°22'0 0.0
2017-Oct-15 16:30N 37°54' W 122°22'0 0.0
2017-Oct-15 16:00N 37°54' W 122°22'0 0.0
2017-Oct-15 15:30N 37°54' W 122°22'0 0.0
2017-Oct-15 15:00N 37°54' W 122°22'0 0.0
2017-Oct-15 14:00N 37°54' W 122°22'0 0.0
2017-Oct-15 13:30N 37°54' W 122°22'0 0.0
2017-Oct-15 13:00N 37°54' W 122°22'0 0.0
2017-Oct-15 12:30N 37°54' W 122°22'0 0.0
2017-Oct-15 12:00N 37°54' W 122°22'0 0.0
2017-Oct-15 11:30N 37°54' W 122°22'0 0.0
2017-Oct-15 11:00N 37°54' W 122°22'0 0.0
2017-Oct-15 10:30N 37°54' W 122°22'0 0.0
2017-Oct-15 10:00N 37°54' W 122°22'0 0.0
2017-Oct-15 09:30N 37°54' W 122°22'0 0.0
2017-Oct-15 09:00N 37°54' W 122°22'1 1.9
2017-Oct-15 08:30N 37°55' W 122°22'0 0.9
2017-Oct-15 08:00N 37°55' W 122°22'2 4.2
2017-Oct-15 07:30N 37°55' W 122°24'4 7.9
2017-Oct-15 07:00N 37°58' W 122°26'4 7.3
2017-Oct-15 06:30N 38°01' W 122°23'3 5.8
2017-Oct-15 06:00N 38°03' W 122°20'3 5.5
2017-Oct-15 05:30N 38°03' W 122°16'3 5.0
2017-Oct-15 05:00N 38°04' W 122°13'2 4.5
2017-Oct-15 04:30N 38°03' W 122°10'2 0.1
2017-Oct-14 13:25N 38°02' W 122°08'0 0.2
2017-Oct-14 12:45N 38°02' W 122°08'1 4.3
2017-Oct-14 12:30N 38°02' W 122°09'2 4.6
2017-Oct-14 12:00N 38°03' W 122°11'2 4.5
2017-Oct-14 11:30N 38°04' W 122°14'2 4.7
2017-Oct-14 11:00N 38°03' W 122°17'3 5.3
2017-Oct-14 10:30N 38°02' W 122°20'3 5.9
2017-Oct-14 10:00N 38°01' W 122°24'3 6.2
2017-Oct-14 09:30N 37°58' W 122°26'3 5.9
2017-Oct-14 09:00N 37°55' W 122°25'3 6.5
2017-Oct-14 08:30N 37°52' W 122°24'4 8.4
2017-Oct-14 08:01N 37°48' W 122°22'3 6.4
2017-Oct-14 07:30N 37°46' W 122°20'0 0.0
2017-Oct-14 07:01N 37°46' W 122°20'0 0.0
2017-Oct-14 06:30N 37°46' W 122°20'0 0.0
2017-Oct-14 06:00N 37°46' W 122°20'0 0.0
2017-Oct-14 05:31N 37°46' W 122°20'0 0.0
2017-Oct-14 05:00N 37°46' W 122°20'0 0.0
2017-Oct-14 04:30N 37°46' W 122°20'0 0.0
2017-Oct-14 04:00N 37°46' W 122°20'2 3.6
2017-Oct-14 03:30N 37°47' W 122°21'2 3.6
2017-Oct-14 03:00N 37°48' W 122°19'0 0.1
2017-Oct-14 02:28N 37°48' W 122°19'0 0.1
2017-Oct-14 01:58N 37°48' W 122°19'0 0.1
2017-Oct-14 01:28N 37°48' W 122°19'0 0.0
2017-Oct-14 00:58N 37°48' W 122°19'0 0.0
2017-Oct-14 00:28N 37°48' W 122°19'0 0.0
2017-Oct-13 23:58N 37°48' W 122°19'0 0.0
2017-Oct-13 23:28N 37°48' W 122°19'1 1.3
2017-Oct-13 23:00N 37°48' W 122°19'2 4.8
2017-Oct-13 22:30N 37°49' W 122°22'0 0.0
2017-Oct-13 21:58N 37°49' W 122°22'0 0.0
2017-Oct-13 21:28N 37°49' W 122°22'0 0.0
2017-Oct-13 20:58N 37°49' W 122°22'0 0.0
2017-Oct-13 20:28N 37°49' W 122°22'0 0.0
2017-Oct-13 19:58N 37°49' W 122°22'0 0.0
2017-Oct-13 19:28N 37°49' W 122°22'0 0.0
2017-Oct-13 18:58N 37°49' W 122°22'0 0.0
2017-Oct-13 18:28N 37°49' W 122°22'0 0.0
2017-Oct-13 17:52N 37°49' W 122°22'0 0.0
2017-Oct-13 17:28N 37°49' W 122°22'0 0.0
2017-Oct-13 16:58N 37°49' W 122°22'0 0.0
2017-Oct-13 16:28N 37°49' W 122°22'0 0.0
2017-Oct-13 15:58N 37°49' W 122°22'0 0.0
2017-Oct-13 15:28N 37°49' W 122°22'0 0.0
2017-Oct-13 14:59N 37°49' W 122°22'1 2.9
2017-Oct-13 14:30N 37°48' W 122°21'3 5.9
2017-Oct-13 14:01N 37°45' W 122°21'0 0.0
2017-Oct-13 13:28N 37°45' W 122°21'0 0.0
2017-Oct-13 12:58N 37°45' W 122°21'0 0.0
2017-Oct-13 12:28N 37°45' W 122°21'0 0.0
2017-Oct-13 11:58N 37°45' W 122°21'0 0.1
2017-Oct-13 11:28N 37°45' W 122°21'0 0.0
2017-Oct-13 10:58N 37°45' W 122°21'0 0.0
2017-Oct-13 10:28N 37°45' W 122°21'0 0.0
2017-Oct-13 09:58N 37°45' W 122°21'0 0.2
2017-Oct-13 09:28N 37°45' W 122°21'0 0.3
2017-Oct-13 08:58N 37°45' W 122°21'0 0.1
2017-Oct-13 08:28N 37°45' W 122°21'0 0.0
2017-Oct-13 07:58N 37°45' W 122°21'0 0.0
2017-Oct-13 07:28N 37°45' W 122°21'0 0.0
2017-Oct-13 06:58N 37°45' W 122°21'0 0.0
2017-Oct-13 06:29N 37°45' W 122°21'1 3.1
2017-Oct-13 06:00N 37°46' W 122°22'2 4.8
2017-Oct-13 05:31N 37°49' W 122°23'3 5.5
2017-Oct-13 05:00N 37°51' W 122°24'3 6.4
2017-Oct-13 04:30N 37°54' W 122°23'1 2.6
2017-Oct-13 04:00N 37°55' W 122°22'1 1.9
2017-Oct-13 03:29N 37°54' W 122°22'0 0.0
2017-Oct-13 02:59N 37°54' W 122°22'0 0.0
2017-Oct-13 02:29N 37°54' W 122°22'0 0.0
2017-Oct-13 01:59N 37°54' W 122°22'0 0.0
2017-Oct-13 01:29N 37°54' W 122°22'0 0.2
2017-Oct-13 01:00N 37°54' W 122°23'3 5.3
2017-Oct-13 00:30N 37°52' W 122°24'4 7.1
2017-Oct-13 00:00N 37°49' W 122°21'1 1.4
2017-Oct-12 23:29N 37°49' W 122°20'0 0.0
2017-Oct-12 22:59N 37°49' W 122°20'0 0.0
2017-Oct-12 22:29N 37°49' W 122°20'0 0.0
2017-Oct-12 21:59N 37°49' W 122°20'0 0.0
2017-Oct-12 21:29N 37°49' W 122°20'0 0.0
2017-Oct-12 20:59N 37°49' W 122°20'0 0.0
2017-Oct-12 20:29N 37°49' W 122°20'0 0.0
2017-Oct-12 19:59N 37°49' W 122°20'0 0.0
2017-Oct-12 19:29N 37°49' W 122°20'0 0.0
2017-Oct-12 18:59N 37°49' W 122°20'0 0.0
2017-Oct-12 18:30N 37°49' W 122°20'1 1.1
2017-Oct-12 18:00N 37°49' W 122°21'3 5.2
2017-Oct-12 17:30N 37°51' W 122°23'3 5.8
2017-Oct-12 17:00N 37°54' W 122°24'2 4.5
2017-Oct-12 16:30N 37°54' W 122°22'1 1.8
2017-Oct-12 16:00N 37°55' W 122°22'1 1.5
2017-Oct-12 15:28N 37°54' W 122°22'0 0.0
2017-Oct-12 14:58N 37°54' W 122°22'0 0.0
2017-Oct-12 14:28N 37°54' W 122°22'0 0.0
2017-Oct-12 13:58N 37°54' W 122°22'0 0.0
2017-Oct-12 13:28N 37°54' W 122°22'0 0.0
2017-Oct-12 12:58N 37°54' W 122°22'0 0.0
2017-Oct-12 12:28N 37°54' W 122°22'0 0.0
2017-Oct-12 11:55N 37°54' W 122°22'0 0.0
2017-Oct-12 11:30N 37°54' W 122°22'2 4.9
2017-Oct-12 11:00N 37°54' W 122°25'3 6.9
2017-Oct-12 10:30N 37°51' W 122°23'3 5.5
2017-Oct-12 10:00N 37°48' W 122°21'1 1.4
2017-Oct-12 09:30N 37°49' W 122°20'0 0.0
2017-Oct-12 09:00N 37°49' W 122°20'0 0.0
2017-Oct-12 08:30N 37°49' W 122°20'0 0.0
2017-Oct-12 08:00N 37°49' W 122°20'0 0.0
2017-Oct-12 07:30N 37°49' W 122°20'0 0.0
2017-Oct-12 07:00N 37°49' W 122°20'0 0.0
2017-Oct-12 06:30N 37°49' W 122°20'0 0.0
2017-Oct-12 06:00N 37°49' W 122°20'0 0.0
2017-Oct-12 05:30N 37°49' W 122°20'0 0.0
2017-Oct-12 05:00N 37°49' W 122°20'0 0.0
2017-Oct-12 04:30N 37°49' W 122°20'0 0.0
2017-Oct-12 04:00N 37°49' W 122°20'0 0.0
2017-Oct-12 03:30N 37°49' W 122°20'0 0.0
2017-Oct-12 03:00N 37°49' W 122°20'0 0.0
2017-Oct-12 02:31N 37°49' W 122°20'0 0.0
2017-Oct-12 02:00N 37°49' W 122°20'0 0.0
2017-Oct-12 01:30N 37°49' W 122°20'0 0.0
2017-Oct-12 01:00N 37°49' W 122°20'0 0.0
2017-Oct-12 00:30N 37°49' W 122°20'2 3.0
2017-Oct-12 00:00N 37°49' W 122°22'3 5.7
2017-Oct-11 23:30N 37°52' W 122°24'2 4.8
2017-Oct-11 23:00N 37°54' W 122°25'2 4.8
2017-Oct-11 22:30N 37°54' W 122°22'0 0.9
2017-Oct-11 22:00N 37°55' W 122°22'1 1.5
2017-Oct-11 21:31N 37°54' W 122°23'2 4.8
2017-Oct-11 21:00N 37°52' W 122°24'3 6.2
2017-Oct-11 20:30N 37°50' W 122°22'3 6.1
2017-Oct-11 20:01N 37°48' W 122°19'1 1.0
2017-Oct-11 19:30N 37°48' W 122°18'0 0.0
2017-Oct-11 19:00N 37°48' W 122°18'0 0.0
2017-Oct-11 18:30N 37°48' W 122°18'0 0.0
2017-Oct-11 18:00N 37°48' W 122°18'0 0.0
2017-Oct-11 17:30N 37°48' W 122°18'0 0.0
2017-Oct-11 17:00N 37°48' W 122°18'7 0.4
2017-Oct-11 00:00N 37°54' W 122°22'0 0.3
2017-Oct-10 23:28N 37°54' W 122°22'0 0.0
2017-Oct-10 22:55N 37°54' W 122°22'0 0.0
2017-Oct-10 22:25N 37°54' W 122°22'0 0.0
2017-Oct-10 21:58N 37°54' W 122°22'0 0.0
2017-Oct-10 21:28N 37°54' W 122°22'0 0.0
2017-Oct-10 20:58N 37°54' W 122°22'0 0.0
2017-Oct-10 20:25N 37°54' W 122°22'0 0.0
2017-Oct-10 19:58N 37°54' W 122°22'0 0.1
2017-Oct-10 19:28N 37°54' W 122°22'0 0.0
2017-Oct-10 18:58N 37°54' W 122°22'0 0.0
2017-Oct-10 18:28N 37°54' W 122°22'0 0.0
2017-Oct-10 17:58N 37°54' W 122°22'0 0.0
2017-Oct-10 17:28N 37°54' W 122°22'0 0.0
2017-Oct-10 16:58N 37°54' W 122°22'0 0.0
2017-Oct-10 16:28N 37°54' W 122°22'0 0.6
2017-Oct-10 16:00N 37°54' W 122°23'2 4.5
2017-Oct-10 15:30N 37°52' W 122°24'4 8.2
2017-Oct-10 15:00N 37°49' W 122°21'2 2.4
2017-Oct-10 14:00N 37°48' W 122°19'0 0.0
2017-Oct-10 13:30N 37°48' W 122°19'0 0.0
2017-Oct-10 13:00N 37°48' W 122°19'0 0.0
2017-Oct-10 12:30N 37°48' W 122°19'0 0.0
2017-Oct-10 12:00N 37°48' W 122°19'0 0.0
2017-Oct-10 11:30N 37°48' W 122°19'0 0.0
2017-Oct-10 11:00N 37°48' W 122°19'0 0.0
2017-Oct-10 10:30N 37°48' W 122°19'0 0.0
2017-Oct-10 10:00N 37°48' W 122°19'0 0.0
2017-Oct-10 09:30N 37°48' W 122°19'0 0.0
2017-Oct-10 09:00N 37°48' W 122°19'0 0.0
2017-Oct-10 08:30N 37°48' W 122°19'0 0.0
2017-Oct-10 08:00N 37°48' W 122°19'0 0.0
2017-Oct-10 07:30N 37°48' W 122°19'0 0.2
2017-Oct-10 07:00N 37°48' W 122°19'2 4.1
2017-Oct-10 06:31N 37°48' W 122°21'3 6.3
2017-Oct-10 06:00N 37°51' W 122°23'3 5.6
2017-Oct-10 05:30N 37°54' W 122°24'2 3.3
2017-Oct-10 05:00N 37°54' W 122°22'0 0.0
2017-Oct-10 04:27N 37°54' W 122°22'0 0.0
2017-Oct-10 04:00N 37°54' W 122°22'0 0.0
2017-Oct-10 03:27N 37°54' W 122°22'0 0.0
2017-Oct-10 02:57N 37°54' W 122°22'1 2.0
2017-Oct-10 02:30N 37°55' W 122°22'1 1.8
2017-Oct-10 02:01N 37°54' W 122°22'2 3.3
2017-Oct-10 01:31N 37°54' W 122°24'3 5.6
2017-Oct-10 01:00N 37°51' W 122°24'3 6.4
2017-Oct-10 00:30N 37°48' W 122°23'4 9.0
2017-Oct-10 00:00N 37°44' W 122°21'1 2.0
2017-Oct-09 23:29N 37°43' W 122°20'0 0.2
2017-Oct-09 22:59N 37°43' W 122°20'0 0.2
2017-Oct-09 22:29N 37°43' W 122°20'0 0.1
2017-Oct-09 21:59N 37°43' W 122°20'0 0.0
2017-Oct-09 21:26N 37°43' W 122°20'0 0.0
2017-Oct-09 20:59N 37°43' W 122°20'0 0.0
2017-Oct-09 20:29N 37°43' W 122°20'0 0.1
2017-Oct-09 20:00N 37°43' W 122°20'2 4.2
2017-Oct-09 19:30N 37°45' W 122°20'3 5.8
2017-Oct-09 19:00N 37°48' W 122°20'1 2.7
2017-Oct-09 18:29N 37°48' W 122°18'0 0.0
2017-Oct-09 17:59N 37°48' W 122°18'0 0.0
2017-Oct-09 17:29N 37°48' W 122°18'0 0.0
2017-Oct-09 16:59N 37°48' W 122°18'0 0.0
2017-Oct-09 16:29N 37°48' W 122°18'0 0.0
2017-Oct-09 15:59N 37°48' W 122°18'0 0.0
2017-Oct-09 15:29N 37°48' W 122°18'0 0.0
2017-Oct-09 14:59N 37°48' W 122°18'0 0.0
2017-Oct-09 14:29N 37°48' W 122°18'1 2.5
2017-Oct-09 14:00N 37°48' W 122°19'2 4.5
2017-Oct-09 13:31N 37°46' W 122°21'1 2.0
2017-Oct-09 13:01N 37°45' W 122°20'0 0.0
2017-Oct-09 12:30N 37°45' W 122°20'0 0.0
2017-Oct-09 12:00N 37°45' W 122°20'0 0.3
2017-Oct-09 11:30N 37°45' W 122°20'0 0.2
2017-Oct-09 11:00N 37°45' W 122°20'0 0.0
2017-Oct-09 10:30N 37°45' W 122°20'0 0.0
2017-Oct-09 10:00N 37°45' W 122°20'0 0.0
2017-Oct-09 09:30N 37°45' W 122°20'0 0.0
2017-Oct-09 09:00N 37°45' W 122°20'0 0.0
2017-Oct-09 08:30N 37°45' W 122°20'0 0.0
2017-Oct-09 08:00N 37°45' W 122°20'0 0.1
2017-Oct-09 07:30N 37°45' W 122°20'0 0.0
2017-Oct-09 07:00N 37°45' W 122°20'0 0.0
2017-Oct-09 06:30N 37°45' W 122°20'0 0.0
2017-Oct-09 06:01N 37°45' W 122°20'0 0.1
2017-Oct-09 05:31N 37°45' W 122°20'1 1.8
2017-Oct-09 05:00N 37°45' W 122°21'3 5.8
2017-Oct-09 04:30N 37°48' W 122°22'3 5.6
2017-Oct-09 04:00N 37°51' W 122°24'3 6.0
2017-Oct-09 03:30N 37°54' W 122°24'2 4.4
2017-Oct-09 03:00N 37°54' W 122°22'1 2.0
2017-Oct-09 02:31N 37°55' W 122°22'1 1.6
2017-Oct-09 02:01N 37°55' W 122°22'2 4.5
2017-Oct-09 01:30N 37°54' W 122°25'1 2.4
2017-Oct-09 01:00N 37°55' W 122°25'0 0.0
2017-Oct-09 00:30N 37°55' W 122°25'1 2.4
2017-Oct-09 00:00N 37°54' W 122°24'1 2.6
2017-Oct-08 23:30N 37°54' W 122°22'2 3.7
2017-Oct-08 23:00N 37°54' W 122°25'4 7.3
2017-Oct-08 22:30N 37°51' W 122°23'4 7.7
2017-Oct-08 22:01N 37°47' W 122°21'2 4.8
2017-Oct-08 21:31N 37°45' W 122°21'0 0.1
2017-Oct-08 20:58N 37°45' W 122°20'0 0.0
2017-Oct-08 20:28N 37°45' W 122°20'0 0.0
2017-Oct-08 19:58N 37°45' W 122°20'0 0.0
2017-Oct-08 19:28N 37°45' W 122°20'0 0.0
2017-Oct-08 18:58N 37°45' W 122°20'0 0.0
2017-Oct-08 18:28N 37°45' W 122°20'0 0.1
2017-Oct-08 17:58N 37°45' W 122°21'0 0.0
2017-Oct-08 17:28N 37°45' W 122°21'0 0.0
2017-Oct-08 16:58N 37°45' W 122°21'0 0.4
2017-Oct-08 16:28N 37°45' W 122°21'0 0.2
2017-Oct-08 15:58N 37°45' W 122°21'0 0.0
2017-Oct-08 15:28N 37°45' W 122°21'0 0.0
2017-Oct-08 14:58N 37°45' W 122°21'0 0.0
2017-Oct-08 14:28N 37°45' W 122°21'0 0.0
2017-Oct-08 13:58N 37°45' W 122°21'0 0.0
2017-Oct-08 13:28N 37°45' W 122°21'0 0.0
2017-Oct-08 12:58N 37°45' W 122°21'0 0.0
2017-Oct-08 12:28N 37°45' W 122°21'0 0.0
2017-Oct-08 11:58N 37°45' W 122°21'0 0.0
2017-Oct-08 11:28N 37°45' W 122°21'0 0.0
2017-Oct-08 10:58N 37°45' W 122°21'0 0.3
2017-Oct-08 10:28N 37°45' W 122°21'0 0.2
2017-Oct-08 10:00N 37°45' W 122°21'0 0.4
2017-Oct-08 09:31N 37°45' W 122°20'4 8.0
2017-Oct-08 09:01N 37°49' W 122°23'4 8.2
2017-Oct-08 08:30N 37°52' W 122°24'3 6.2
2017-Oct-08 08:00N 37°56' W 122°25'1 1.5
2017-Oct-08 07:30N 37°55' W 122°25'4 8.4
2017-Oct-08 07:01N 37°51' W 122°23'3 6.1
2017-Oct-08 06:30N 37°49' W 122°20'0 0.2
2017-Oct-08 06:00N 37°49' W 122°20'0 0.0
2017-Oct-08 05:30N 37°49' W 122°20'0 0.0
2017-Oct-08 05:00N 37°49' W 122°20'0 0.0
2017-Oct-08 04:30N 37°49' W 122°20'0 0.0
2017-Oct-08 04:00N 37°49' W 122°20'0 0.0
2017-Oct-08 03:30N 37°49' W 122°20'0 0.0
2017-Oct-08 03:00N 37°49' W 122°20'0 0.0
2017-Oct-08 02:30N 37°49' W 122°20'0 0.0
2017-Oct-08 02:00N 37°49' W 122°20'0 0.0
2017-Oct-08 01:31N 37°49' W 122°20'0 0.0
2017-Oct-08 01:00N 37°49' W 122°20'0 0.0
2017-Oct-08 00:30N 37°49' W 122°20'0 0.0
2017-Oct-08 00:00N 37°49' W 122°20'0 0.0
2017-Oct-07 23:30N 37°49' W 122°20'0 0.0
2017-Oct-07 23:00N 37°49' W 122°20'0 0.0
2017-Oct-07 22:30N 37°49' W 122°20'1 1.7
2017-Oct-07 22:00N 37°49' W 122°21'3 5.3
2017-Oct-07 21:30N 37°51' W 122°23'3 5.1
2017-Oct-07 21:00N 37°53' W 122°25'2 4.6
2017-Oct-07 20:30N 37°54' W 122°22'1 2.1
2017-Oct-07 20:00N 37°55' W 122°22'1 1.7
2017-Oct-07 19:30N 37°54' W 122°22'0 0.9
2017-Oct-07 18:56N 37°54' W 122°22'0 0.0
2017-Oct-07 18:29N 37°54' W 122°22'0 0.0
2017-Oct-07 17:56N 37°54' W 122°22'0 0.0
2017-Oct-07 17:29N 37°54' W 122°22'0 0.0
2017-Oct-07 16:59N 37°54' W 122°22'0 0.0
2017-Oct-07 16:29N 37°54' W 122°22'0 0.0
2017-Oct-07 15:59N 37°54' W 122°22'0 0.0
2017-Oct-07 15:26N 37°54' W 122°22'0 0.0
2017-Oct-07 14:59N 37°54' W 122°22'0 0.0
2017-Oct-07 14:29N 37°54' W 122°22'0 0.0
2017-Oct-07 13:59N 37°54' W 122°22'0 0.0
2017-Oct-07 13:29N 37°54' W 122°22'0 0.0
2017-Oct-07 12:59N 37°54' W 122°22'0 0.0
2017-Oct-07 12:17N 37°54' W 122°22'0 0.0
2017-Oct-07 11:59N 37°54' W 122°22'0 0.0
2017-Oct-07 11:29N 37°54' W 122°22'0 0.0
2017-Oct-07 10:56N 37°54' W 122°22'0 0.0
2017-Oct-07 10:26N 37°54' W 122°22'0 0.0
2017-Oct-07 09:53N 37°54' W 122°22'0 0.0
2017-Oct-07 09:29N 37°54' W 122°22'0 0.0
2017-Oct-07 08:59N 37°54' W 122°22'0 0.1
2017-Oct-07 08:30N 37°54' W 122°22'1 1.9
2017-Oct-07 08:00N 37°55' W 122°22'0 0.6
2017-Oct-07 07:30N 37°55' W 122°22'1 1.7
2017-Oct-07 07:00N 37°54' W 122°22'0 0.0
2017-Oct-07 06:30N 37°54' W 122°22'0 0.0
2017-Oct-07 05:57N 37°54' W 122°22'0 0.0
2017-Oct-07 05:30N 37°54' W 122°22'0 0.0
2017-Oct-07 04:54N 37°54' W 122°22'0 0.0
2017-Oct-07 04:27N 37°54' W 122°22'0 0.0
2017-Oct-07 04:00N 37°54' W 122°22'0 0.1
2017-Oct-07 03:30N 37°54' W 122°22'1 2.6
2017-Oct-07 03:00N 37°54' W 122°24'3 6.2
2017-Oct-07 02:30N 37°51' W 122°23'3 6.6
2017-Oct-07 02:00N 37°49' W 122°20'1 1.0
2017-Oct-07 01:28N 37°49' W 122°20'0 0.0
2017-Oct-07 00:58N 37°49' W 122°20'0 0.0
2017-Oct-07 00:25N 37°49' W 122°20'0 0.0
2017-Oct-06 23:58N 37°49' W 122°20'0 0.0
2017-Oct-06 23:28N 37°49' W 122°20'0 0.0
2017-Oct-06 22:58N 37°49' W 122°20'0 0.0
2017-Oct-06 22:25N 37°49' W 122°20'0 0.0
2017-Oct-06 21:58N 37°49' W 122°20'0 0.0
2017-Oct-06 21:28N 37°49' W 122°20'0 0.0
2017-Oct-06 20:55N 37°49' W 122°20'0 0.0
2017-Oct-06 20:28N 37°49' W 122°20'0 0.0
2017-Oct-06 19:58N 37°49' W 122°20'0 0.0
2017-Oct-06 19:28N 37°49' W 122°20'0 0.0
2017-Oct-06 18:58N 37°49' W 122°20'0 0.0
2017-Oct-06 18:28N 37°49' W 122°20'0 0.0
2017-Oct-06 17:58N 37°49' W 122°20'0 0.0
2017-Oct-06 17:28N 37°49' W 122°20'0 0.0
2017-Oct-06 16:58N 37°49' W 122°20'0 0.0
2017-Oct-06 16:30N 37°49' W 122°20'1 2.9
2017-Oct-06 16:01N 37°49' W 122°21'3 6.6
2017-Oct-06 15:30N 37°52' W 122°23'3 5.6
2017-Oct-06 15:00N 37°54' W 122°24'2 4.3
2017-Oct-06 14:30N 37°55' W 122°22'1 1.1
2017-Oct-06 14:00N 37°55' W 122°22'1 1.5
2017-Oct-06 13:25N 37°54' W 122°22'0 0.0
2017-Oct-06 12:58N 37°54' W 122°22'0 0.0
2017-Oct-06 12:28N 37°54' W 122°22'0 0.0
2017-Oct-06 11:58N 37°54' W 122°22'0 0.0
2017-Oct-06 11:28N 37°54' W 122°22'0 0.0
2017-Oct-06 10:58N 37°54' W 122°22'0 0.0
2017-Oct-06 10:28N 37°54' W 122°22'0 0.0
2017-Oct-06 09:58N 37°54' W 122°22'0 0.0
2017-Oct-06 09:28N 37°54' W 122°22'0 0.0
2017-Oct-06 08:58N 37°54' W 122°22'0 0.0
2017-Oct-06 08:28N 37°54' W 122°22'0 0.0
2017-Oct-06 07:58N 37°54' W 122°22'0 0.0
2017-Oct-06 07:28N 37°54' W 122°22'0 0.0
2017-Oct-06 06:58N 37°54' W 122°22'0 0.0
2017-Oct-06 06:28N 37°54' W 122°22'0 0.0
2017-Oct-06 05:58N 37°54' W 122°22'0 0.0
2017-Oct-06 05:28N 37°54' W 122°22'0 0.0
2017-Oct-06 04:58N 37°54' W 122°22'0 0.2
2017-Oct-06 04:30N 37°54' W 122°22'  
Track history (hours):
 
Tides and Currents Weather Stations Pressure Air Temp Water Temp Dewpoint Dewpoint Depression Visibility Wind Speed Wind Dir Waves Ship Positions

Point Fermin

Owner: Foss Maritime Company, Seattle, WA. More information available from US FCC via Universal Licensing System and Coast Guard Vessel Documentation Center.

Last reported at 2017-Oct-16 04:19 UTC. Time now 2017-Oct-18 00:10 UTC.
Position N 37°54' W 122°22'.

Length 32 m; draft 4.3 m.

Type: Towing. MMSI: 367349770.

Date/timePositionNaut miles runAvg speedWind from/ knotsBaromVisibWave heightAir tempDewpointWater temp
2017-Oct-16 04:19N 37°54' W 122°22'2 4.9
2017-Oct-16 04:00N 37°54' W 122°24'510.2
2017-Oct-16 03:30N 37°49' W 122°23'4 8.7
2017-Oct-16 03:01N 37°45' W 122°21'2 3.0
2017-Oct-16 02:31N 37°44' W 122°20'611.4
2017-Oct-16 02:00N 37°49' W 122°23'5 9.7
2017-Oct-16 01:30N 37°54' W 122°24'2 3.0
2017-Oct-16 01:00N 37°54' W 122°22'0 0.0
2017-Oct-16 00:30N 37°54' W 122°22'1 1.5
2017-Oct-16 00:00N 37°55' W 122°22'1 1.6
2017-Oct-15 23:30N 37°54' W 122°22'0 0.3
2017-Oct-15 23:00N 37°54' W 122°22'1 1.3
2017-Oct-15 22:30N 37°55' W 122°22'0 0.3
2017-Oct-15 22:00N 37°55' W 122°22'1 1.0
2017-Oct-15 21:30N 37°54' W 122°22'0 0.0
2017-Oct-15 21:00N 37°54' W 122°22'0 0.0
2017-Oct-15 20:30N 37°54' W 122°22'0 0.0
2017-Oct-15 20:00N 37°54' W 122°22'0 0.0
2017-Oct-15 19:30N 37°54' W 122°22'0 0.0
2017-Oct-15 19:00N 37°54' W 122°22'0 0.0
2017-Oct-15 18:30N 37°54' W 122°22'0 0.0
2017-Oct-15 18:00N 37°54' W 122°22'0 0.0
2017-Oct-15 17:30N 37°54' W 122°22'0 0.0
2017-Oct-15 17:00N 37°54' W 122°22'0 0.0
2017-Oct-15 16:30N 37°54' W 122°22'0 0.0
2017-Oct-15 16:00N 37°54' W 122°22'0 0.0
2017-Oct-15 15:30N 37°54' W 122°22'0 0.0
2017-Oct-15 15:00N 37°54' W 122°22'0 0.0
2017-Oct-15 14:00N 37°54' W 122°22'0 0.0
2017-Oct-15 13:30N 37°54' W 122°22'0 0.0
2017-Oct-15 13:00N 37°54' W 122°22'0 0.0
2017-Oct-15 12:30N 37°54' W 122°22'0 0.0
2017-Oct-15 12:00N 37°54' W 122°22'0 0.0
2017-Oct-15 11:30N 37°54' W 122°22'0 0.0
2017-Oct-15 11:00N 37°54' W 122°22'0 0.0
2017-Oct-15 10:30N 37°54' W 122°22'0 0.0
2017-Oct-15 10:00N 37°54' W 122°22'0 0.0
2017-Oct-15 09:30N 37°54' W 122°22'0 0.0
2017-Oct-15 09:00N 37°54' W 122°22'1 1.9
2017-Oct-15 08:30N 37°55' W 122°22'0 0.9
2017-Oct-15 08:00N 37°55' W 122°22'2 4.2
2017-Oct-15 07:30N 37°55' W 122°24'4 7.9
2017-Oct-15 07:00N 37°58' W 122°26'4 7.3
2017-Oct-15 06:30N 38°01' W 122°23'3 5.8
2017-Oct-15 06:00N 38°03' W 122°20'3 5.5
2017-Oct-15 05:30N 38°03' W 122°16'3 5.0
2017-Oct-15 05:00N 38°04' W 122°13'2 4.5
2017-Oct-15 04:30N 38°03' W 122°10'2 0.1
2017-Oct-14 13:25N 38°02' W 122°08'0 0.2
2017-Oct-14 12:45N 38°02' W 122°08'1 4.3
2017-Oct-14 12:30N 38°02' W 122°09'2 4.6
2017-Oct-14 12:00N 38°03' W 122°11'2 4.5
2017-Oct-14 11:30N 38°04' W 122°14'2 4.7
2017-Oct-14 11:00N 38°03' W 122°17'3 5.3
2017-Oct-14 10:30N 38°02' W 122°20'3 5.9
2017-Oct-14 10:00N 38°01' W 122°24'3 6.2
2017-Oct-14 09:30N 37°58' W 122°26'3 5.9
2017-Oct-14 09:00N 37°55' W 122°25'3 6.5
2017-Oct-14 08:30N 37°52' W 122°24'4 8.4
2017-Oct-14 08:01N 37°48' W 122°22'3 6.4
2017-Oct-14 07:30N 37°46' W 122°20'0 0.0
2017-Oct-14 07:01N 37°46' W 122°20'0 0.0
2017-Oct-14 06:30N 37°46' W 122°20'0 0.0
2017-Oct-14 06:00N 37°46' W 122°20'0 0.0
2017-Oct-14 05:31N 37°46' W 122°20'0 0.0
2017-Oct-14 05:00N 37°46' W 122°20'0 0.0
2017-Oct-14 04:30N 37°46' W 122°20'0 0.0
2017-Oct-14 04:00N 37°46' W 122°20'2 3.6
2017-Oct-14 03:30N 37°47' W 122°21'2 3.6
2017-Oct-14 03:00N 37°48' W 122°19'0 0.1
2017-Oct-14 02:28N 37°48' W 122°19'0 0.1
2017-Oct-14 01:58N 37°48' W 122°19'0 0.1
2017-Oct-14 01:28N 37°48' W 122°19'0 0.0
2017-Oct-14 00:58N 37°48' W 122°19'0 0.0
2017-Oct-14 00:28N 37°48' W 122°19'0 0.0
2017-Oct-13 23:58N 37°48' W 122°19'0 0.0
2017-Oct-13 23:28N 37°48' W 122°19'1 1.3
2017-Oct-13 23:00N 37°48' W 122°19'2 4.8
2017-Oct-13 22:30N 37°49' W 122°22'0 0.0
2017-Oct-13 21:58N 37°49' W 122°22'0 0.0
2017-Oct-13 21:28N 37°49' W 122°22'0 0.0
2017-Oct-13 20:58N 37°49' W 122°22'0 0.0
2017-Oct-13 20:28N 37°49' W 122°22'0 0.0
2017-Oct-13 19:58N 37°49' W 122°22'0 0.0
2017-Oct-13 19:28N 37°49' W 122°22'0 0.0
2017-Oct-13 18:58N 37°49' W 122°22'0 0.0
2017-Oct-13 18:28N 37°49' W 122°22'0 0.0
2017-Oct-13 17:52N 37°49' W 122°22'0 0.0
2017-Oct-13 17:28N 37°49' W 122°22'0 0.0
2017-Oct-13 16:58N 37°49' W 122°22'0 0.0
2017-Oct-13 16:28N 37°49' W 122°22'0 0.0
2017-Oct-13 15:58N 37°49' W 122°22'0 0.0
2017-Oct-13 15:28N 37°49' W 122°22'0 0.0
2017-Oct-13 14:59N 37°49' W 122°22'1 2.9
2017-Oct-13 14:30N 37°48' W 122°21'3 5.9
2017-Oct-13 14:01N 37°45' W 122°21'0 0.0
2017-Oct-13 13:28N 37°45' W 122°21'0 0.0
2017-Oct-13 12:58N 37°45' W 122°21'0 0.0
2017-Oct-13 12:28N 37°45' W 122°21'0 0.0
2017-Oct-13 11:58N 37°45' W 122°21'0 0.1
2017-Oct-13 11:28N 37°45' W 122°21'0 0.0
2017-Oct-13 10:58N 37°45' W 122°21'0 0.0
2017-Oct-13 10:28N 37°45' W 122°21'0 0.0
2017-Oct-13 09:58N 37°45' W 122°21'0 0.2
2017-Oct-13 09:28N 37°45' W 122°21'0 0.3
2017-Oct-13 08:58N 37°45' W 122°21'0 0.1
2017-Oct-13 08:28N 37°45' W 122°21'0 0.0
2017-Oct-13 07:58N 37°45' W 122°21'0 0.0
2017-Oct-13 07:28N 37°45' W 122°21'0 0.0
2017-Oct-13 06:58N 37°45' W 122°21'0 0.0
2017-Oct-13 06:29N 37°45' W 122°21'1 3.1
2017-Oct-13 06:00N 37°46' W 122°22'2 4.8
2017-Oct-13 05:31N 37°49' W 122°23'3 5.5
2017-Oct-13 05:00N 37°51' W 122°24'3 6.4
2017-Oct-13 04:30N 37°54' W 122°23'1 2.6
2017-Oct-13 04:00N 37°55' W 122°22'1 1.9
2017-Oct-13 03:29N 37°54' W 122°22'0 0.0
2017-Oct-13 02:59N 37°54' W 122°22'0 0.0
2017-Oct-13 02:29N 37°54' W 122°22'0 0.0
2017-Oct-13 01:59N 37°54' W 122°22'0 0.0
2017-Oct-13 01:29N 37°54' W 122°22'0 0.2
2017-Oct-13 01:00N 37°54' W 122°23'3 5.3
2017-Oct-13 00:30N 37°52' W 122°24'4 7.1
2017-Oct-13 00:00N 37°49' W 122°21'1 1.4
2017-Oct-12 23:29N 37°49' W 122°20'0 0.0
2017-Oct-12 22:59N 37°49' W 122°20'0 0.0
2017-Oct-12 22:29N 37°49' W 122°20'0 0.0
2017-Oct-12 21:59N 37°49' W 122°20'0 0.0
2017-Oct-12 21:29N 37°49' W 122°20'0 0.0
2017-Oct-12 20:59N 37°49' W 122°20'0 0.0
2017-Oct-12 20:29N 37°49' W 122°20'0 0.0
2017-Oct-12 19:59N 37°49' W 122°20'0 0.0
2017-Oct-12 19:29N 37°49' W 122°20'0 0.0
2017-Oct-12 18:59N 37°49' W 122°20'0 0.0
2017-Oct-12 18:30N 37°49' W 122°20'1 1.1
2017-Oct-12 18:00N 37°49' W 122°21'3 5.2
2017-Oct-12 17:30N 37°51' W 122°23'3 5.8
2017-Oct-12 17:00N 37°54' W 122°24'2 4.5
2017-Oct-12 16:30N 37°54' W 122°22'1 1.8
2017-Oct-12 16:00N 37°55' W 122°22'1 1.5
2017-Oct-12 15:28N 37°54' W 122°22'0 0.0
2017-Oct-12 14:58N 37°54' W 122°22'0 0.0
2017-Oct-12 14:28N 37°54' W 122°22'0 0.0
2017-Oct-12 13:58N 37°54' W 122°22'0 0.0
2017-Oct-12 13:28N 37°54' W 122°22'0 0.0
2017-Oct-12 12:58N 37°54' W 122°22'0 0.0
2017-Oct-12 12:28N 37°54' W 122°22'0 0.0
2017-Oct-12 11:55N 37°54' W 122°22'0 0.0
2017-Oct-12 11:30N 37°54' W 122°22'2 4.9
2017-Oct-12 11:00N 37°54' W 122°25'3 6.9
2017-Oct-12 10:30N 37°51' W 122°23'3 5.5
2017-Oct-12 10:00N 37°48' W 122°21'1 1.4
2017-Oct-12 09:30N 37°49' W 122°20'0 0.0
2017-Oct-12 09:00N 37°49' W 122°20'0 0.0
2017-Oct-12 08:30N 37°49' W 122°20'0 0.0
2017-Oct-12 08:00N 37°49' W 122°20'0 0.0
2017-Oct-12 07:30N 37°49' W 122°20'0 0.0
2017-Oct-12 07:00N 37°49' W 122°20'0 0.0
2017-Oct-12 06:30N 37°49' W 122°20'0 0.0
2017-Oct-12 06:00N 37°49' W 122°20'0 0.0
2017-Oct-12 05:30N 37°49' W 122°20'0 0.0
2017-Oct-12 05:00N 37°49' W 122°20'0 0.0
2017-Oct-12 04:30N 37°49' W 122°20'0 0.0
2017-Oct-12 04:00N 37°49' W 122°20'0 0.0
2017-Oct-12 03:30N 37°49' W 122°20'0 0.0
2017-Oct-12 03:00N 37°49' W 122°20'0 0.0
2017-Oct-12 02:31N 37°49' W 122°20'0 0.0
2017-Oct-12 02:00N 37°49' W 122°20'0 0.0
2017-Oct-12 01:30N 37°49' W 122°20'0 0.0
2017-Oct-12 01:00N 37°49' W 122°20'0 0.0
2017-Oct-12 00:30N 37°49' W 122°20'2 3.0
2017-Oct-12 00:00N 37°49' W 122°22'3 5.7
2017-Oct-11 23:30N 37°52' W 122°24'2 4.8
2017-Oct-11 23:00N 37°54' W 122°25'2 4.8
2017-Oct-11 22:30N 37°54' W 122°22'0 0.9
2017-Oct-11 22:00N 37°55' W 122°22'1 1.5
2017-Oct-11 21:31N 37°54' W 122°23'2 4.8
2017-Oct-11 21:00N 37°52' W 122°24'3 6.2
2017-Oct-11 20:30N 37°50' W 122°22'3 6.1
2017-Oct-11 20:01N 37°48' W 122°19'1 1.0
2017-Oct-11 19:30N 37°48' W 122°18'0 0.0
2017-Oct-11 19:00N 37°48' W 122°18'0 0.0
2017-Oct-11 18:30N 37°48' W 122°18'0 0.0
2017-Oct-11 18:00N 37°48' W 122°18'0 0.0
2017-Oct-11 17:30N 37°48' W 122°18'0 0.0
2017-Oct-11 17:00N 37°48' W 122°18'7 0.4
2017-Oct-11 00:00N 37°54' W 122°22'0 0.3
2017-Oct-10 23:28N 37°54' W 122°22'0 0.0
2017-Oct-10 22:55N 37°54' W 122°22'0 0.0
2017-Oct-10 22:25N 37°54' W 122°22'0 0.0
2017-Oct-10 21:58N 37°54' W 122°22'0 0.0
2017-Oct-10 21:28N 37°54' W 122°22'0 0.0
2017-Oct-10 20:58N 37°54' W 122°22'0 0.0
2017-Oct-10 20:25N 37°54' W 122°22'0 0.0
2017-Oct-10 19:58N 37°54' W 122°22'0 0.1
2017-Oct-10 19:28N 37°54' W 122°22'0 0.0
2017-Oct-10 18:58N 37°54' W 122°22'0 0.0
2017-Oct-10 18:28N 37°54' W 122°22'0 0.0
2017-Oct-10 17:58N 37°54' W 122°22'0 0.0
2017-Oct-10 17:28N 37°54' W 122°22'0 0.0
2017-Oct-10 16:58N 37°54' W 122°22'0 0.0
2017-Oct-10 16:28N 37°54' W 122°22'0 0.6
2017-Oct-10 16:00N 37°54' W 122°23'2 4.5
2017-Oct-10 15:30N 37°52' W 122°24'4 8.2
2017-Oct-10 15:00N 37°49' W 122°21'2 2.4
2017-Oct-10 14:00N 37°48' W 122°19'0 0.0
2017-Oct-10 13:30N 37°48' W 122°19'0 0.0
2017-Oct-10 13:00N 37°48' W 122°19'0 0.0
2017-Oct-10 12:30N 37°48' W 122°19'0 0.0
2017-Oct-10 12:00N 37°48' W 122°19'0 0.0
2017-Oct-10 11:30N 37°48' W 122°19'0 0.0
2017-Oct-10 11:00N 37°48' W 122°19'0 0.0
2017-Oct-10 10:30N 37°48' W 122°19'0 0.0
2017-Oct-10 10:00N 37°48' W 122°19'0 0.0
2017-Oct-10 09:30N 37°48' W 122°19'0 0.0
2017-Oct-10 09:00N 37°48' W 122°19'0 0.0
2017-Oct-10 08:30N 37°48' W 122°19'0 0.0
2017-Oct-10 08:00N 37°48' W 122°19'0 0.0
2017-Oct-10 07:30N 37°48' W 122°19'0 0.2
2017-Oct-10 07:00N 37°48' W 122°19'2 4.1
2017-Oct-10 06:31N 37°48' W 122°21'3 6.3
2017-Oct-10 06:00N 37°51' W 122°23'3 5.6
2017-Oct-10 05:30N 37°54' W 122°24'2 3.3
2017-Oct-10 05:00N 37°54' W 122°22'0 0.0
2017-Oct-10 04:27N 37°54' W 122°22'0 0.0
2017-Oct-10 04:00N 37°54' W 122°22'0 0.0
2017-Oct-10 03:27N 37°54' W 122°22'0 0.0
2017-Oct-10 02:57N 37°54' W 122°22'1 2.0
2017-Oct-10 02:30N 37°55' W 122°22'1 1.8
2017-Oct-10 02:01N 37°54' W 122°22'2 3.3
2017-Oct-10 01:31N 37°54' W 122°24'3 5.6
2017-Oct-10 01:00N 37°51' W 122°24'3 6.4
2017-Oct-10 00:30N 37°48' W 122°23'4 9.0
2017-Oct-10 00:00N 37°44' W 122°21'1 2.0
2017-Oct-09 23:29N 37°43' W 122°20'0 0.2
2017-Oct-09 22:59N 37°43' W 122°20'0 0.2
2017-Oct-09 22:29N 37°43' W 122°20'0 0.1
2017-Oct-09 21:59N 37°43' W 122°20'0 0.0
2017-Oct-09 21:26N 37°43' W 122°20'0 0.0
2017-Oct-09 20:59N 37°43' W 122°20'0 0.0
2017-Oct-09 20:29N 37°43' W 122°20'0 0.1
2017-Oct-09 20:00N 37°43' W 122°20'2 4.2
2017-Oct-09 19:30N 37°45' W 122°20'3 5.8
2017-Oct-09 19:00N 37°48' W 122°20'1 2.7
2017-Oct-09 18:29N 37°48' W 122°18'0 0.0
2017-Oct-09 17:59N 37°48' W 122°18'0 0.0
2017-Oct-09 17:29N 37°48' W 122°18'0 0.0
2017-Oct-09 16:59N 37°48' W 122°18'0 0.0
2017-Oct-09 16:29N 37°48' W 122°18'0 0.0
2017-Oct-09 15:59N 37°48' W 122°18'0 0.0
2017-Oct-09 15:29N 37°48' W 122°18'0 0.0
2017-Oct-09 14:59N 37°48' W 122°18'0 0.0
2017-Oct-09 14:29N 37°48' W 122°18'1 2.5
2017-Oct-09 14:00N 37°48' W 122°19'2 4.5
2017-Oct-09 13:31N 37°46' W 122°21'1 2.0
2017-Oct-09 13:01N 37°45' W 122°20'0 0.0
2017-Oct-09 12:30N 37°45' W 122°20'0 0.0
2017-Oct-09 12:00N 37°45' W 122°20'0 0.3
2017-Oct-09 11:30N 37°45' W 122°20'0 0.2
2017-Oct-09 11:00N 37°45' W 122°20'0 0.0
2017-Oct-09 10:30N 37°45' W 122°20'0 0.0
2017-Oct-09 10:00N 37°45' W 122°20'0 0.0
2017-Oct-09 09:30N 37°45' W 122°20'0 0.0
2017-Oct-09 09:00N 37°45' W 122°20'0 0.0
2017-Oct-09 08:30N 37°45' W 122°20'0 0.0
2017-Oct-09 08:00N 37°45' W 122°20'0 0.1
2017-Oct-09 07:30N 37°45' W 122°20'0 0.0
2017-Oct-09 07:00N 37°45' W 122°20'0 0.0
2017-Oct-09 06:30N 37°45' W 122°20'0 0.0
2017-Oct-09 06:01N 37°45' W 122°20'0 0.1
2017-Oct-09 05:31N 37°45' W 122°20'1 1.8
2017-Oct-09 05:00N 37°45' W 122°21'3 5.8
2017-Oct-09 04:30N 37°48' W 122°22'3 5.6
2017-Oct-09 04:00N 37°51' W 122°24'3 6.0
2017-Oct-09 03:30N 37°54' W 122°24'2 4.4
2017-Oct-09 03:00N 37°54' W 122°22'1 2.0
2017-Oct-09 02:31N 37°55' W 122°22'1 1.6
2017-Oct-09 02:01N 37°55' W 122°22'2 4.5
2017-Oct-09 01:30N 37°54' W 122°25'1 2.4
2017-Oct-09 01:00N 37°55' W 122°25'0 0.0
2017-Oct-09 00:30N 37°55' W 122°25'1 2.4
2017-Oct-09 00:00N 37°54' W 122°24'1 2.6
2017-Oct-08 23:30N 37°54' W 122°22'2 3.7
2017-Oct-08 23:00N 37°54' W 122°25'4 7.3
2017-Oct-08 22:30N 37°51' W 122°23'4 7.7
2017-Oct-08 22:01N 37°47' W 122°21'2 4.8
2017-Oct-08 21:31N 37°45' W 122°21'0 0.1
2017-Oct-08 20:58N 37°45' W 122°20'0 0.0
2017-Oct-08 20:28N 37°45' W 122°20'0 0.0
2017-Oct-08 19:58N 37°45' W 122°20'0 0.0
2017-Oct-08 19:28N 37°45' W 122°20'0 0.0
2017-Oct-08 18:58N 37°45' W 122°20'0 0.0
2017-Oct-08 18:28N 37°45' W 122°20'0 0.1
2017-Oct-08 17:58N 37°45' W 122°21'0 0.0
2017-Oct-08 17:28N 37°45' W 122°21'0 0.0
2017-Oct-08 16:58N 37°45' W 122°21'0 0.4
2017-Oct-08 16:28N 37°45' W 122°21'0 0.2
2017-Oct-08 15:58N 37°45' W 122°21'0 0.0
2017-Oct-08 15:28N 37°45' W 122°21'0 0.0
2017-Oct-08 14:58N 37°45' W 122°21'0 0.0
2017-Oct-08 14:28N 37°45' W 122°21'0 0.0
2017-Oct-08 13:58N 37°45' W 122°21'0 0.0
2017-Oct-08 13:28N 37°45' W 122°21'0 0.0
2017-Oct-08 12:58N 37°45' W 122°21'0 0.0
2017-Oct-08 12:28N 37°45' W 122°21'0 0.0
2017-Oct-08 11:58N 37°45' W 122°21'0 0.0
2017-Oct-08 11:28N 37°45' W 122°21'0 0.0
2017-Oct-08 10:58N 37°45' W 122°21'0 0.3
2017-Oct-08 10:28N 37°45' W 122°21'0 0.2
2017-Oct-08 10:00N 37°45' W 122°21'0 0.4
2017-Oct-08 09:31N 37°45' W 122°20'4 8.0
2017-Oct-08 09:01N 37°49' W 122°23'4 8.2
2017-Oct-08 08:30N 37°52' W 122°24'3 6.2
2017-Oct-08 08:00N 37°56' W 122°25'1 1.5
2017-Oct-08 07:30N 37°55' W 122°25'4 8.4
2017-Oct-08 07:01N 37°51' W 122°23'3 6.1
2017-Oct-08 06:30N 37°49' W 122°20'0 0.2
2017-Oct-08 06:00N 37°49' W 122°20'0 0.0
2017-Oct-08 05:30N 37°49' W 122°20'0 0.0
2017-Oct-08 05:00N 37°49' W 122°20'0 0.0
2017-Oct-08 04:30N 37°49' W 122°20'0 0.0
2017-Oct-08 04:00N 37°49' W 122°20'0 0.0
2017-Oct-08 03:30N 37°49' W 122°20'0 0.0
2017-Oct-08 03:00N 37°49' W 122°20'0 0.0
2017-Oct-08 02:30N 37°49' W 122°20'0 0.0
2017-Oct-08 02:00N 37°49' W 122°20'0 0.0
2017-Oct-08 01:31N 37°49' W 122°20'0 0.0
2017-Oct-08 01:00N 37°49' W 122°20'0 0.0
2017-Oct-08 00:30N 37°49' W 122°20'0 0.0
2017-Oct-08 00:00N 37°49' W 122°20'0 0.0
2017-Oct-07 23:30N 37°49' W 122°20'0 0.0
2017-Oct-07 23:00N 37°49' W 122°20'0 0.0
2017-Oct-07 22:30N 37°49' W 122°20'1 1.7
2017-Oct-07 22:00N 37°49' W 122°21'3 5.3
2017-Oct-07 21:30N 37°51' W 122°23'3 5.1
2017-Oct-07 21:00N 37°53' W 122°25'2 4.6
2017-Oct-07 20:30N 37°54' W 122°22'1 2.1
2017-Oct-07 20:00N 37°55' W 122°22'1 1.7
2017-Oct-07 19:30N 37°54' W 122°22'0 0.9
2017-Oct-07 18:56N 37°54' W 122°22'0 0.0
2017-Oct-07 18:29N 37°54' W 122°22'0 0.0
2017-Oct-07 17:56N 37°54' W 122°22'0 0.0
2017-Oct-07 17:29N 37°54' W 122°22'0 0.0
2017-Oct-07 16:59N 37°54' W 122°22'0 0.0
2017-Oct-07 16:29N 37°54' W 122°22'0 0.0
2017-Oct-07 15:59N 37°54' W 122°22'0 0.0
2017-Oct-07 15:26N 37°54' W 122°22'0 0.0
2017-Oct-07 14:59N 37°54' W 122°22'0 0.0
2017-Oct-07 14:29N 37°54' W 122°22'0 0.0
2017-Oct-07 13:59N 37°54' W 122°22'0 0.0
2017-Oct-07 13:29N 37°54' W 122°22'0 0.0
2017-Oct-07 12:59N 37°54' W 122°22'0 0.0
2017-Oct-07 12:17N 37°54' W 122°22'0 0.0
2017-Oct-07 11:59N 37°54' W 122°22'0 0.0
2017-Oct-07 11:29N 37°54' W 122°22'0 0.0
2017-Oct-07 10:56N 37°54' W 122°22'0 0.0
2017-Oct-07 10:26N 37°54' W 122°22'0 0.0
2017-Oct-07 09:53N 37°54' W 122°22'0 0.0
2017-Oct-07 09:29N 37°54' W 122°22'0 0.0
2017-Oct-07 08:59N 37°54' W 122°22'0 0.1
2017-Oct-07 08:30N 37°54' W 122°22'1 1.9
2017-Oct-07 08:00N 37°55' W 122°22'0 0.6
2017-Oct-07 07:30N 37°55' W 122°22'1 1.7
2017-Oct-07 07:00N 37°54' W 122°22'0 0.0
2017-Oct-07 06:30N 37°54' W 122°22'0 0.0
2017-Oct-07 05:57N 37°54' W 122°22'0 0.0
2017-Oct-07 05:30N 37°54' W 122°22'0 0.0
2017-Oct-07 04:54N 37°54' W 122°22'0 0.0
2017-Oct-07 04:27N 37°54' W 122°22'0 0.0
2017-Oct-07 04:00N 37°54' W 122°22'0 0.1
2017-Oct-07 03:30N 37°54' W 122°22'1 2.6
2017-Oct-07 03:00N 37°54' W 122°24'3 6.2
2017-Oct-07 02:30N 37°51' W 122°23'3 6.6
2017-Oct-07 02:00N 37°49' W 122°20'1 1.0
2017-Oct-07 01:28N 37°49' W 122°20'0 0.0
2017-Oct-07 00:58N 37°49' W 122°20'0 0.0
2017-Oct-07 00:25N 37°49' W 122°20'0 0.0
2017-Oct-06 23:58N 37°49' W 122°20'0 0.0
2017-Oct-06 23:28N 37°49' W 122°20'0 0.0
2017-Oct-06 22:58N 37°49' W 122°20'0 0.0
2017-Oct-06 22:25N 37°49' W 122°20'0 0.0
2017-Oct-06 21:58N 37°49' W 122°20'0 0.0
2017-Oct-06 21:28N 37°49' W 122°20'0 0.0
2017-Oct-06 20:55N 37°49' W 122°20'0 0.0
2017-Oct-06 20:28N 37°49' W 122°20'0 0.0
2017-Oct-06 19:58N 37°49' W 122°20'0 0.0
2017-Oct-06 19:28N 37°49' W 122°20'0 0.0
2017-Oct-06 18:58N 37°49' W 122°20'0 0.0
2017-Oct-06 18:28N 37°49' W 122°20'0 0.0
2017-Oct-06 17:58N 37°49' W 122°20'0 0.0
2017-Oct-06 17:28N 37°49' W 122°20'0 0.0
2017-Oct-06 16:58N 37°49' W 122°20'0 0.0
2017-Oct-06 16:30N 37°49' W 122°20'1 2.9
2017-Oct-06 16:01N 37°49' W 122°21'3 6.6
2017-Oct-06 15:30N 37°52' W 122°23'3 5.6
2017-Oct-06 15:00N 37°54' W 122°24'2 4.3
2017-Oct-06 14:30N 37°55' W 122°22'1 1.1
2017-Oct-06 14:00N 37°55' W 122°22'1 1.5
2017-Oct-06 13:25N 37°54' W 122°22'0 0.0
2017-Oct-06 12:58N 37°54' W 122°22'0 0.0
2017-Oct-06 12:28N 37°54' W 122°22'0 0.0
2017-Oct-06 11:58N 37°54' W 122°22'0 0.0
2017-Oct-06 11:28N 37°54' W 122°22'0 0.0
2017-Oct-06 10:58N 37°54' W 122°22'0 0.0
2017-Oct-06 10:28N 37°54' W 122°22'0 0.0
2017-Oct-06 09:58N 37°54' W 122°22'0 0.0
2017-Oct-06 09:28N 37°54' W 122°22'0 0.0
2017-Oct-06 08:58N 37°54' W 122°22'0 0.0
2017-Oct-06 08:28N 37°54' W 122°22'0 0.0
2017-Oct-06 07:58N 37°54' W 122°22'0 0.0
2017-Oct-06 07:28N 37°54' W 122°22'0 0.0
2017-Oct-06 06:58N 37°54' W 122°22'0 0.0
2017-Oct-06 06:28N 37°54' W 122°22'0 0.0
2017-Oct-06 05:58N 37°54' W 122°22'0 0.0
2017-Oct-06 05:28N 37°54' W 122°22'0 0.0
2017-Oct-06 04:58N 37°54' W 122°22'0 0.2
2017-Oct-06 04:30N 37°54' W 122°22'  

Dump ship's entire track history